Time;durP1;ratioP1;P1;durP2;ratioP2;P2;SDS_P1;SDS_P2;PMS_P1;PMS_P2;Temp;Humidity;BMP_temperature;BMP_pressure;BME280_temperature;BME280_humidity;BME280_pressure;Samples;Min_cycle;Max_cycle;Signal;HPM_P1;HPM_P2
2022/12/06 00:01:09;;;;;;;20.15;7.80;;;;;;;-0.32;100.00;95638.84;5028008;28;20040;-73
2022/12/06 00:03:35;;;;;;;21.23;9.27;;;;;;;-0.30;100.00;95642.03;5018911;28;20166;-72
2022/12/06 00:06:06;;;;;;;21.83;8.98;;;;;;;-0.25;100.00;95637.06;5028354;28;20124;-71
2022/12/06 00:08:32;;;;;;;23.55;9.07;;;;;;;-0.24;100.00;95646.41;5019857;28;20096;-72
2022/12/06 00:11:09;;;;;;;24.48;9.65;;;;;;;-0.22;100.00;95644.41;5021074;28;20495;-72
2022/12/06 00:13:36;;;;;;;27.95;9.25;;;;;;;-0.20;100.00;95647.63;5019470;28;20049;-72
2022/12/06 00:16:04;;;;;;;20.83;8.65;;;;;;;-0.12;100.00;95653.59;5024810;28;20519;-72
2022/12/06 00:18:32;;;;;;;21.08;9.00;;;;;;;-0.16;100.00;95652.38;5022782;28;20113;-72
2022/12/06 00:21:15;;;;;;;24.60;9.65;;;;;;;-0.15;100.00;95659.16;5019181;28;20042;-72
2022/12/06 00:23:46;;;;;;;22.13;8.93;;;;;;;-0.22;100.00;95654.75;5021733;28;20049;-71
2022/12/06 00:26:12;;;;;;;22.33;9.77;;;;;;;-0.33;100.00;95657.94;5025106;28;20496;-72
2022/12/06 00:28:38;;;;;;;28.13;11.38;;;;;;;-0.39;100.00;95658.72;5016377;28;20096;-72
2022/12/06 00:31:07;;;;;;;24.10;9.63;;;;;;;-0.41;100.00;95660.72;5022421;28;20038;-72
2022/12/06 00:33:34;;;;;;;23.13;8.95;;;;;;;-0.36;100.00;95658.31;5029025;28;20041;-72
2022/12/06 00:36:02;;;;;;;25.77;9.73;;;;;;;-0.46;100.00;95652.75;5019733;28;20040;-71
2022/12/06 00:38:28;;;;;;;18.15;8.45;;;;;;;-0.47;100.00;95653.75;5020854;28;20115;-72
2022/12/06 00:41:03;;;;;;;20.88;8.90;;;;;;;-0.54;100.00;95651.94;5018349;28;20546;-72
2022/12/06 00:43:30;;;;;;;24.23;8.65;;;;;;;-0.59;100.00;95649.16;5027452;28;20045;-72
2022/12/06 00:45:56;;;;;;;27.02;10.13;;;;;;;-0.62;100.00;95649.50;5027226;28;20033;-73
2022/12/06 00:48:22;;;;;;;21.90;9.85;;;;;;;-0.56;100.00;95656.50;5018001;28;20048;-73
2022/12/06 00:50:48;;;;;;;25.73;10.18;;;;;;;-0.44;100.00;95650.78;5019173;28;20419;-72
2022/12/06 00:53:14;;;;;;;27.20;10.70;;;;;;;-0.45;100.00;95649.16;5029625;28;20196;-72
2022/12/06 00:55:39;;;;;;;24.17;10.10;;;;;;;-0.43;100.00;95642.81;5024782;28;20492;-72
2022/12/06 00:58:05;;;;;;;24.33;10.23;;;;;;;-0.52;100.00;95649.16;5024444;28;20046;-72
2022/12/06 01:00:30;;;;;;;26.10;9.88;;;;;;;-0.56;100.00;95651.34;5023520;28;20458;-72
2022/12/06 01:02:59;;;;;;;22.00;8.85;;;;;;;-0.54;100.00;95641.59;5017127;28;20038;-72
2022/12/06 01:05:25;;;;;;;23.95;8.70;;;;;;;-0.55;100.00;95647.78;5014898;28;20049;-72
2022/12/06 01:07:51;;;;;;;21.88;8.93;;;;;;;-0.62;100.00;95631.41;5029168;28;20045;-72
2022/12/06 01:10:16;;;;;;;24.08;9.07;;;;;;;-0.66;100.00;95627.66;5025147;28;20038;-72
2022/12/06 01:12:42;;;;;;;22.08;9.35;;;;;;;-0.75;100.00;95634.81;5017843;28;20040;-72
2022/12/06 01:15:08;;;;;;;24.50;9.80;;;;;;;-0.75;100.00;95628.81;5015501;28;20539;-71
2022/12/06 01:17:34;;;;;;;28.15;9.77;;;;;;;-0.78;100.00;95629.22;5017978;28;20034;-72
2022/12/06 01:20:00;;;;;;;22.25;8.77;;;;;;;-0.87;100.00;95626.78;5011353;28;20598;-72
2022/12/06 01:22:25;;;;;;;20.70;9.00;;;;;;;-0.89;100.00;95631.38;5023057;28;20041;-72
2022/12/06 01:24:51;;;;;;;22.00;9.15;;;;;;;-0.77;100.00;95625.63;5024491;28;20506;-72
2022/12/06 01:27:16;;;;;;;20.73;8.68;;;;;;;-0.74;100.00;95614.91;5010421;28;20057;-72
2022/12/06 01:29:42;;;;;;;18.75;8.13;;;;;;;-0.79;100.00;95622.44;5017530;28;20096;-72
2022/12/06 01:32:08;;;;;;;26.40;9.60;;;;;;;-0.81;100.00;95620.06;5019908;28;20107;-72
2022/12/06 01:34:33;;;;;;;23.58;9.63;;;;;;;-0.75;100.00;95623.66;5012914;28;20122;-72
2022/12/06 01:36:59;;;;;;;23.38;8.80;;;;;;;-0.81;100.00;95619.25;5015167;28;20046;-72
2022/12/06 01:39:24;;;;;;;20.23;8.57;;;;;;;-0.95;100.00;95618.41;5028344;28;20546;-72
2022/12/06 01:41:50;;;;;;;21.13;9.32;;;;;;;-0.98;100.00;95609.25;5015600;28;20108;-72
2022/12/06 01:44:52;;;;;;;22.48;8.80;;;;;;;-1.06;100.00;95617.22;5024382;28;20041;-72
2022/12/06 01:47:29;;;;;;;22.90;9.15;;;;;;;-1.00;100.00;95611.25;4983141;28;20053;-72
2022/12/06 01:49:57;;;;;;;18.35;8.43;;;;;;;-1.08;100.00;95614.00;5017312;28;20049;-72
2022/12/06 01:52:29;;;;;;;25.00;9.38;;;;;;;-0.96;100.00;95612.47;5017735;28;20419;-72
2022/12/06 01:54:55;;;;;;;22.10;9.32;;;;;;;-0.94;100.00;95605.31;5021995;28;20763;-72
2022/12/06 01:57:21;;;;;;;21.80;9.85;;;;;;;-0.94;100.00;95610.47;5021087;28;20042;-72
2022/12/06 01:59:47;;;;;;;21.67;9.52;;;;;;;-1.08;100.00;95603.66;5008592;28;20076;-72
2022/12/06 02:02:13;;;;;;;22.45;9.10;;;;;;;-1.22;100.00;95598.47;5022971;28;20052;-71
2022/12/06 02:04:39;;;;;;;19.70;8.13;;;;;;;-1.19;100.00;95592.13;5017276;28;20053;-72
2022/12/06 02:07:06;;;;;;;21.95;8.32;;;;;;;-1.30;100.00;95601.19;5014672;28;20164;-72
2022/12/06 02:09:33;;;;;;;23.92;9.20;;;;;;;-1.42;100.00;95602.75;5015240;28;20099;-72
2022/12/06 02:11:59;;;;;;;23.70;9.52;;;;;;;-1.47;100.00;95594.78;5027389;28;20041;-72
2022/12/06 02:14:29;;;;;;;21.60;8.88;;;;;;;-1.54;100.00;95593.94;5027089;28;20041;-72
2022/12/06 02:17:07;;;;;;;22.35;9.02;;;;;;;-1.59;100.00;95592.72;5014667;28;20107;-72
2022/12/06 02:19:53;;;;;;;20.67;8.35;;;;;;;-1.56;100.00;95591.56;5024052;28;20491;-72
2022/12/06 02:22:37;;;;;;;21.33;8.77;;;;;;;-1.54;100.00;95593.94;5029481;28;20041;-72
2022/12/06 02:25:47;;;;;;;17.65;7.75;;;;;;;-1.55;100.00;95592.34;5020613;28;20048;-72
2022/12/06 02:28:33;;;;;;;21.75;7.75;;;;;;;-1.70;100.00;95595.84;5006513;28;20068;-72
2022/12/06 02:31:24;;;;;;;23.90;9.27;;;;;;;-1.58;100.00;95584.00;5013297;28;20038;-72
2022/12/06 02:34:07;;;;;;;25.13;9.43;;;;;;;-1.36;100.00;95588.28;5016301;28;20054;-72
2022/12/06 02:36:44;;;;;;;27.52;9.60;;;;;;;-1.27;100.00;95580.16;5018297;28;20499;-71
2022/12/06 02:39:18;;;;;;;24.42;10.40;;;;;;;-1.35;100.00;95577.75;5017991;28;20046;-71
2022/12/06 02:41:59;;;;;;;33.05;11.40;;;;;;;-1.37;100.00;95569.41;5031478;28;20041;-71
2022/12/06 02:44:30;;;;;;;26.15;9.55;;;;;;;-1.24;100.00;95568.66;5031045;28;20048;-71
2022/12/06 02:46:57;;;;;;;30.08;10.05;;;;;;;-1.18;100.00;95561.91;5025592;28;20037;-71
2022/12/06 02:49:26;;;;;;;34.85;11.75;;;;;;;-1.17;100.00;95569.47;5020412;28;20038;-72
2022/12/06 02:51:53;;;;;;;24.63;11.00;;;;;;;-1.24;100.00;95561.69;5032028;28;20033;-72
2022/12/06 02:54:21;;;;;;;30.20;11.15;;;;;;;-1.15;100.00;95566.69;5017219;28;20104;-72
2022/12/06 02:56:46;;;;;;;35.00;11.68;;;;;;;-1.10;100.00;95561.75;5027771;28;20072;-72
2022/12/06 02:59:12;;;;;;;26.77;10.23;;;;;;;-1.05;100.00;95561.94;5025486;28;20100;-72
2022/12/06 03:01:43;;;;;;;27.98;10.90;;;;;;;-0.97;100.00;95564.38;5022007;28;20107;-73
2022/12/06 03:04:45;;;;;;;26.17;10.60;;;;;;;-1.06;100.00;95562.97;5011335;28;20045;-72
2022/12/06 03:07:34;;;;;;;28.13;10.23;;;;;;;-1.08;100.00;95560.56;5030906;28;20056;-72
2022/12/06 03:10:17;;;;;;;24.05;10.18;;;;;;;-1.10;100.00;95559.97;5019625;28;20168;-71
2022/12/06 03:13:21;;;;;;;28.80;10.35;;;;;;;-1.05;100.00;95556.78;5026361;28;20033;-72
2022/12/06 03:16:00;;;;;;;27.23;10.25;;;;;;;-1.07;100.00;95553.63;5022564;28;20042;-72
2022/12/06 03:18:32;;;;;;;26.25;9.95;;;;;;;-1.11;100.00;95557.56;5026977;28;20042;-72
2022/12/06 03:21:10;;;;;;;21.00;9.57;;;;;;;-1.08;100.00;95559.75;5020544;28;20037;-72
2022/12/06 03:23:40;;;;;;;23.63;9.13;;;;;;;-1.10;100.00;95554.00;5029978;28;20037;-72
2022/12/06 03:26:10;;;;;;;25.35;10.00;;;;;;;-1.14;100.00;95547.63;5014048;28;20049;-72
2022/12/06 03:28:38;;;;;;;23.95;9.63;;;;;;;-1.11;100.00;95552.41;5016606;28;20045;-71
2022/12/06 03:31:10;;;;;;;19.98;8.65;;;;;;;-1.05;100.00;95546.44;5017722;28;20037;-71
2022/12/06 03:33:42;;;;;;;35.83;9.70;;;;;;;-1.08;100.00;95547.66;5028188;28;20122;-72
2022/12/06 03:36:11;;;;;;;25.02;9.18;;;;;;;-1.06;100.00;95545.66;5017459;28;20038;-72
2022/12/06 03:38:51;;;;;;;29.75;10.45;;;;;;;-1.05;100.00;95547.28;5016811;28;20037;-72
2022/12/06 03:41:20;;;;;;;28.50;10.25;;;;;;;-1.08;100.00;95549.44;5011769;28;20038;-71
2022/12/06 03:43:46;;;;;;;27.90;10.05;;;;;;;-1.26;100.00;95555.94;5014687;28;20045;-72
2022/12/06 03:46:17;;;;;;;26.75;10.38;;;;;;;-1.22;100.00;95557.16;5030494;28;20071;-72
2022/12/06 03:48:51;;;;;;;27.33;10.50;;;;;;;-1.17;100.00;95553.19;5024590;28;20581;-72
2022/12/06 03:51:21;;;;;;;;;;;;;;;-1.20;100.00;95553.59;5020276;28;20038;-72
2022/12/06 03:53:52;;;;;;;20.63;8.93;;;;;;;-1.32;100.00;95548.97;5029648;28;20058;-72
2022/12/06 03:56:20;;;;;;;23.17;9.10;;;;;;;-1.43;100.00;95559.84;5021580;28;20599;-72
2022/12/06 03:58:45;;;;;;;21.92;9.40;;;;;;;-1.44;100.00;95564.22;5015479;28;20038;-73
2022/12/06 04:01:11;;;;;;;23.75;8.75;;;;;;;-1.53;100.00;95554.25;5021451;28;20474;-72
2022/12/06 04:03:37;;;;;;;26.55;10.43;;;;;;;-1.53;100.00;95560.19;5012429;28;20066;-73
2022/12/06 04:06:04;;;;;;;23.20;10.20;;;;;;;-1.47;100.00;95558.63;5021693;28;20068;-72
2022/12/06 04:08:30;;;;;;;28.05;10.27;;;;;;;-1.36;100.00;95560.66;5027258;28;20048;-72
2022/12/06 04:10:56;;;;;;;25.60;9.43;;;;;;;-1.34;100.00;95553.50;5028874;28;20411;-73
2022/12/06 04:13:21;;;;;;;27.13;9.75;;;;;;;-1.34;100.00;95538.03;5023978;28;20038;-73
2022/12/06 04:15:48;;;;;;;25.70;9.77;;;;;;;-1.34;100.00;95543.19;5018951;28;20462;-73
2022/12/06 04:18:14;;;;;;;25.08;10.45;;;;;;;-1.25;100.00;95549.78;5016999;28;20041;-73
2022/12/06 04:23:34;;;;;;;26.08;9.98;;;;;;;-1.25;100.00;95542.03;5021363;28;20037;-72
2022/12/06 04:26:00;;;;;;;26.38;11.02;;;;;;;-1.27;100.00;95532.91;5024882;28;20046;-73
2022/12/06 04:39:24;;;;;;;27.02;10.88;;;;;;;-1.30;100.00;95539.25;5022459;28;20104;-72
2022/12/06 04:44:34;;;;;;;27.98;10.40;;;;;;;-1.41;100.00;95542.38;5026041;28;20045;-72
2022/12/06 04:47:00;;;;;;;30.05;9.45;;;;;;;-1.51;100.00;95536.78;5019294;28;20064;-73
2022/12/06 04:49:26;;;;;;;28.42;10.23;;;;;;;-1.50;100.00;95531.41;5025793;28;20086;-72
2022/12/06 04:51:53;;;;;;;22.67;10.02;;;;;;;-1.51;100.00;95522.06;5025808;28;20041;-72
2022/12/06 04:54:20;;;;;;;29.00;10.82;;;;;;;-1.41;100.00;95532.88;5028006;28;20407;-71
2022/12/06 04:56:45;;;;;;;30.30;11.60;;;;;;;-1.34;100.00;95532.88;5027210;28;20044;-72
2022/12/06 04:59:11;;;;;;;28.65;10.50;;;;;;;-1.39;100.00;95524.91;5015442;28;20423;-72
2022/12/06 05:01:36;;;;;;;32.28;11.32;;;;;;;-1.33;100.00;95524.13;5022110;28;20048;-71
2022/12/06 05:04:02;;;;;;;24.52;10.13;;;;;;;-1.31;100.00;95527.31;5016932;28;20038;-71
2022/12/06 05:06:27;;;;;;;28.50;10.13;;;;;;;-1.37;100.00;95522.94;5024907;28;20047;-72
2022/12/06 05:08:53;;;;;;;25.55;9.93;;;;;;;-1.38;100.00;95531.66;5020334;28;20046;-72
2022/12/06 05:11:19;;;;;;;26.88;10.07;;;;;;;-1.31;100.00;95531.69;5028957;28;20052;-72
2022/12/06 05:13:44;;;;;;;26.02;10.13;;;;;;;-1.49;100.00;95532.22;5019168;28;20038;-72
2022/12/06 05:16:10;;;;;;;24.20;9.80;;;;;;;-1.44;100.00;95532.44;5020200;28;20037;-72
2022/12/06 05:18:36;;;;;;;26.35;10.20;;;;;;;-1.65;100.00;95529.00;5019029;28;20038;-72
2022/12/06 05:21:06;;;;;;;26.27;10.30;;;;;;;-1.69;100.00;95525.19;5013340;28;20034;-72
2022/12/06 05:23:33;;;;;;;22.85;9.05;;;;;;;-1.76;100.00;95534.69;5015198;28;20522;-72
2022/12/06 05:26:01;;;;;;;23.55;8.85;;;;;;;-1.80;100.00;95528.31;5011863;28;20048;-72
2022/12/06 05:28:27;;;;;;;25.38;10.10;;;;;;;-1.81;100.00;95537.03;5025444;28;20129;-72
2022/12/06 05:30:53;;;;;;;22.90;10.10;;;;;;;-1.83;100.00;95529.47;5027994;28;20034;-72
2022/12/06 05:33:18;;;;;;;23.08;9.48;;;;;;;-1.84;100.00;95537.41;5020596;28;20100;-72
2022/12/06 05:35:44;;;;;;;23.85;9.10;;;;;;;-1.85;100.00;95535.81;5014140;28;20076;-72
2022/12/06 05:38:09;;;;;;;22.42;8.63;;;;;;;-1.88;100.00;95542.16;5023732;28;20052;-72
2022/12/06 05:40:35;;;;;;;22.83;9.77;;;;;;;-1.92;100.00;95541.75;5012515;28;20058;-72
2022/12/06 05:43:00;;;;;;;22.83;8.60;;;;;;;-1.99;100.00;95540.91;5022040;28;20555;-71
2022/12/06 05:45:26;;;;;;;21.83;9.40;;;;;;;-1.94;100.00;95536.00;5010213;28;20345;-71
2022/12/06 05:47:51;;;;;;;23.35;9.57;;;;;;;-1.80;100.00;95548.94;5021635;28;20038;-72
2022/12/06 05:50:17;;;;;;;26.67;10.07;;;;;;;-1.65;100.00;95539.31;5010615;28;20049;-71
2022/12/06 05:52:42;;;;;;;22.42;9.20;;;;;;;-1.79;100.00;95540.22;5028404;28;20045;-71
2022/12/06 05:55:08;;;;;;;28.95;10.73;;;;;;;-1.79;100.00;95541.03;5018079;28;20111;-71
2022/12/06 05:57:34;;;;;;;26.73;10.25;;;;;;;-1.76;100.00;95539.84;5026522;28;20045;-71
2022/12/06 05:59:59;;;;;;;28.15;10.35;;;;;;;-1.93;100.00;95540.13;5025090;28;20041;-71
2022/12/06 06:02:25;;;;;;;28.10;10.85;;;;;;;-2.05;100.00;95531.34;5015696;28;20042;-71
2022/12/06 06:04:51;;;;;;;30.55;10.57;;;;;;;-2.03;100.00;95534.53;5013901;28;20052;-71
2022/12/06 06:07:17;;;;;;;26.52;10.23;;;;;;;-1.85;100.00;95541.78;5025209;28;20049;-71
2022/12/06 06:09:42;;;;;;;31.30;11.20;;;;;;;-1.70;100.00;95538.28;5030383;28;20095;-71
2022/12/06 06:12:08;;;;;;;34.85;10.68;;;;;;;-1.64;100.00;95533.16;5021661;28;20053;-70
2022/12/06 06:14:34;;;;;;;36.55;12.18;;;;;;;-1.67;100.00;95530.94;5026711;28;20049;-71
2022/12/06 06:16:59;;;;;;;37.78;12.35;;;;;;;-1.60;100.00;95533.56;5024144;28;20041;-70
2022/12/06 06:19:25;;;;;;;36.65;12.85;;;;;;;-1.66;100.00;95529.19;5020926;28;20069;-71
2022/12/06 06:21:50;;;;;;;36.83;12.88;;;;;;;-1.73;100.00;95526.56;5027617;28;20034;-71
2022/12/06 06:24:16;;;;;;;37.08;12.65;;;;;;;-1.65;100.00;95534.16;5020225;28;20051;-70
2022/12/06 06:26:41;;;;;;;38.15;13.77;;;;;;;-1.49;100.00;95535.59;5027171;28;20518;-70
2022/12/06 06:29:07;;;;;;;45.63;14.48;;;;;;;-1.43;100.00;95534.81;5026189;28;20091;-71
2022/12/06 06:31:32;;;;;;;42.22;12.77;;;;;;;-1.43;100.00;95529.66;5023292;28;20099;-71
2022/12/06 06:33:58;;;;;;;39.97;13.25;;;;;;;-1.39;100.00;95532.66;5028571;28;20045;-71
2022/12/06 06:36:23;;;;;;;47.47;14.43;;;;;;;-1.41;100.00;95534.63;5025110;28;20115;-70
2022/12/06 06:38:49;;;;;;;37.25;13.10;;;;;;;-1.38;100.00;95531.66;5031620;28;20046;-71
2022/12/06 06:41:14;;;;;;;52.90;16.33;;;;;;;-1.38;100.00;95541.97;5032006;28;20099;-70
2022/12/06 06:43:40;;;;;;;39.97;13.82;;;;;;;-1.36;100.00;95540.03;5023021;28;20042;-71
2022/12/06 06:46:06;;;;;;;40.58;14.35;;;;;;;-1.55;100.00;95546.69;5023035;28;20042;-71
2022/12/06 06:48:35;;;;;;;39.15;14.25;;;;;;;-1.41;100.00;95547.53;5017091;28;20046;-71
2022/12/06 06:51:05;;;;;;;36.47;13.93;;;;;;;-1.55;100.00;95546.69;5029187;28;20088;-70
2022/12/06 06:53:30;;;;;;;42.88;13.73;;;;;;;-1.42;100.00;95551.13;5013516;28;20092;-70
2022/12/06 06:55:56;;;;;;;34.03;12.88;;;;;;;-1.44;100.00;95542.75;5021670;28;20041;-71
2022/12/06 06:58:22;;;;;;;37.80;13.60;;;;;;;-1.51;100.00;95549.69;5024106;28;20122;-71
2022/12/06 07:00:55;;;;;;;44.83;14.45;;;;;;;-1.33;100.00;95538.84;5018199;28;20124;-70
2022/12/06 07:03:22;;;;;;;39.47;13.43;;;;;;;-1.34;100.00;95540.59;5015835;28;20561;-70
2022/12/06 07:05:52;;;;;;;36.85;13.18;;;;;;;-1.22;100.00;95540.88;5024971;28;20059;-71
2022/12/06 07:08:18;;;;;;;53.65;16.48;;;;;;;-1.14;100.00;95542.47;5026303;28;20042;-71
2022/12/06 07:10:47;;;;;;;42.35;14.18;;;;;;;-1.10;100.00;95543.69;5029777;28;20048;-71
2022/12/06 07:13:23;;;;;;;43.88;14.65;;;;;;;-1.05;100.00;95538.69;5028905;28;20049;-71
2022/12/06 07:15:49;;;;;;;45.42;14.38;;;;;;;-0.98;100.00;95542.09;5012712;28;20511;-71
2022/12/06 07:18:16;;;;;;;52.47;14.48;;;;;;;-0.98;100.00;95542.09;5023731;28;20658;-71
2022/12/06 07:20:42;;;;;;;45.80;14.88;;;;;;;-1.01;100.00;95542.50;5026434;28;20045;-69
2022/12/06 07:23:08;;;;;;;44.38;13.85;;;;;;;-0.92;100.00;95550.84;5027643;28;20059;-71
2022/12/06 07:25:33;;;;;;;43.20;13.95;;;;;;;-0.94;100.00;95548.47;5021086;28;20048;-71
2022/12/06 07:27:59;;;;;;;48.38;14.05;;;;;;;-0.95;100.00;95549.47;5030908;28;20053;-71
2022/12/06 07:30:26;;;;;;;46.17;14.30;;;;;;;-0.99;100.00;95543.13;5019626;28;20046;-71
2022/12/06 07:32:52;;;;;;;45.10;14.27;;;;;;;-1.00;100.00;95544.09;5018702;28;20041;-70
2022/12/06 07:35:18;;;;;;;45.70;15.35;;;;;;;-1.03;100.00;95539.31;5019111;28;20042;-72
2022/12/06 07:37:44;;;;;;;44.97;15.40;;;;;;;-0.98;100.00;95542.09;5010952;28;20141;-70
2022/12/06 07:40:12;;;;;;;42.67;14.70;;;;;;;-1.00;100.00;95551.84;5017986;28;20050;-70
2022/12/06 07:45:21;;;;;;;41.25;15.35;;;;;;;-1.10;100.00;95556.59;5016055;28;20045;-70
2022/12/06 07:47:47;;;;;;;42.78;13.65;;;;;;;-1.18;100.00;95546.44;5026158;28;20392;-70
2022/12/06 07:50:18;;;;;;;43.10;15.38;;;;;;;-1.26;100.00;95550.78;5027712;28;20045;-70
2022/12/06 07:52:46;;;;;;;40.85;14.27;;;;;;;-1.18;100.00;95546.44;5024826;28;20166;-70
2022/12/06 07:55:12;;;;;;;38.33;14.07;;;;;;;-1.13;100.00;95544.06;5024151;28;20096;-71
2022/12/06 07:57:38;;;;;;;37.60;13.20;;;;;;;-1.09;100.00;95547.84;5021504;28;20092;-70
2022/12/06 08:00:05;;;;;;;39.05;15.38;;;;;;;-1.03;100.00;95549.66;5022929;28;20125;-70
2022/12/06 08:02:31;;;;;;;49.83;15.02;;;;;;;-0.94;100.00;95548.47;5021472;28;20049;-71
2022/12/06 08:04:57;;;;;;;47.80;14.02;;;;;;;-0.89;100.00;95546.09;5026556;28;20033;-72
2022/12/06 08:07:24;;;;;;;52.53;16.38;;;;;;;-0.84;100.00;95542.16;5023674;28;20519;-69
2022/12/06 08:09:51;;;;;;;43.55;15.73;;;;;;;-0.79;100.00;95544.91;5026456;28;20103;-70
2022/12/06 08:12:17;;;;;;;45.92;16.17;;;;;;;-0.71;100.00;95547.31;5026772;28;20045;-70
2022/12/06 08:14:43;;;;;;;53.40;15.63;;;;;;;-0.62;100.00;95546.13;5016081;28;20045;-71
2022/12/06 08:17:08;;;;;;;47.13;15.00;;;;;;;-0.55;100.00;95546.13;5027074;28;20033;-69
2022/12/06 08:19:34;;;;;;;41.08;14.70;;;;;;;-0.44;100.00;95544.75;5027065;28;20050;-69
2022/12/06 08:21:59;;;;;;;56.38;17.63;;;;;;;-0.40;100.00;95538.19;5019359;28;20042;-69
2022/12/06 08:24:25;;;;;;;36.00;13.50;;;;;;;-0.31;100.00;95547.34;5025035;28;20033;-70
2022/12/06 08:26:51;;;;;;;45.88;14.25;;;;;;;-0.29;100.00;95545.34;5024806;28;20042;-70
2022/12/06 08:29:18;;;;;;;48.67;15.35;;;;;;;-0.26;100.00;95538.97;5022882;28;20410;-70
2022/12/06 08:31:44;;;;;;;48.05;14.98;;;;;;;-0.15;100.00;95540.16;5027806;28;20072;-69
2022/12/06 08:34:11;;;;;;;48.70;15.77;;;;;;;-0.09;100.00;95531.59;5029622;28;20064;-70
2022/12/06 08:36:38;;;;;;;44.45;15.82;;;;;;;-0.01;100.00;95533.97;5018161;28;20045;-71
2022/12/06 08:39:03;;;;;;;49.78;15.60;;;;;;;0.07;100.00;95531.19;5019888;28;20042;-69
2022/12/06 08:44:15;;;;;;;55.67;16.70;;;;;;;0.20;100.00;95529.56;5022887;28;20562;-72
2022/12/06 08:46:41;;;;;;;41.70;14.73;;;;;;;0.16;100.00;95536.94;5023192;28;20037;-70
2022/12/06 08:49:06;;;;;;;42.40;16.13;;;;;;;0.08;100.00;95543.09;5024776;28;20049;-70
2022/12/06 08:51:34;;;;;;;45.25;14.15;;;;;;;0.11;100.00;95547.09;5023318;28;20044;-70
2022/12/06 08:54:00;;;;;;;40.10;14.07;;;;;;;0.12;100.00;95552.06;5026157;28;20041;-70
2022/12/06 08:56:26;;;;;;;38.78;14.13;;;;;;;0.21;100.00;95554.44;5023809;28;20072;-70
2022/12/06 08:58:53;;;;;;;45.95;15.43;;;;;;;0.16;100.00;95548.06;5028514;28;20041;-70
2022/12/06 09:01:24;;;;;;;45.42;14.10;;;;;;;0.13;100.00;95556.25;5024440;28;20396;-70
2022/12/06 09:03:50;;;;;;;46.95;14.98;;;;;;;0.21;100.00;95559.63;5020055;28;20038;-74
2022/12/06 09:06:17;;;;;;;40.08;14.43;;;;;;;0.17;100.00;95560.03;5020350;28;20038;-71
2022/12/06 09:08:43;;;;;;;49.88;16.38;;;;;;;0.11;100.00;95560.81;5023754;28;20053;-72
2022/12/06 09:11:09;;;;;;;45.92;15.25;;;;;;;0.11;100.00;95555.63;5017852;28;20060;-71
2022/12/06 09:13:36;;;;;;;39.75;13.88;;;;;;;0.20;100.00;95552.84;5026994;28;20038;-71
2022/12/06 09:16:13;;;;;;;44.00;14.60;;;;;;;0.20;100.00;95552.84;5017585;28;20046;-70
2022/12/06 09:18:38;;;;;;;44.88;14.57;;;;;;;0.20;100.00;95553.63;5021236;28;20102;-71
2022/12/06 09:21:06;;;;;;;46.63;16.00;;;;;;;0.21;100.00;95549.28;5028489;28;20061;-73
2022/12/06 09:23:33;;;;;;;40.72;14.77;;;;;;;0.28;100.00;95555.22;5027520;28;20046;-71
2022/12/06 09:25:58;;;;;;;41.03;14.75;;;;;;;0.34;100.00;95559.59;5023883;28;20139;-70
2022/12/06 09:28:24;;;;;;;41.70;14.70;;;;;;;0.41;100.00;95560.34;5018674;28;20049;-71
2022/12/06 09:30:49;;;;;;;50.35;16.58;;;;;;;0.42;100.00;95556.78;5027124;28;20139;-70
2022/12/06 09:33:15;;;;;;;43.90;14.60;;;;;;;0.43;100.00;95548.03;5021465;28;20491;-70
2022/12/06 09:35:41;;;;;;;46.33;15.70;;;;;;;0.41;100.00;95550.00;5027944;28;20056;-71
2022/12/06 09:38:07;;;;;;;51.08;14.93;;;;;;;0.51;100.00;95550.34;5029681;28;20064;-70
2022/12/06 09:40:41;;;;;;;42.83;13.75;;;;;;;0.57;100.00;95553.13;5029621;28;20091;-71
2022/12/06 09:43:36;;;;;;;;;;;;;;;0.57;100.00;95558.31;5033125;28;20483;-70
2022/12/06 09:46:09;;;;;;;40.85;14.07;;;;;;;0.64;100.00;95549.53;5015430;28;19925;-70
2022/12/06 09:48:56;;;;;;;46.22;15.00;;;;;;;0.59;100.00;95545.94;5032125;28;20049;-69
2022/12/06 09:51:59;;;;;;;38.30;14.13;;;;;;;0.62;100.00;95545.56;5021542;28;20053;-69
2022/12/06 09:54:42;;;;;;;36.30;12.98;;;;;;;0.70;100.00;95534.94;5024198;28;20456;-70
2022/12/06 09:57:20;;;;;;;33.22;12.13;;;;;;;0.72;100.00;95530.38;5015377;28;20046;-70
2022/12/06 09:59:58;;;;;;;30.33;12.10;;;;;;;0.75;100.00;95523.97;5027694;28;20525;-69
2022/12/06 10:02:44;;;;;;;29.92;10.77;;;;;;;0.68;100.00;95526.59;5033734;28;20072;-70
2022/12/06 10:05:16;;;;;;;33.92;10.73;;;;;;;0.71;100.00;95523.59;5025747;28;20049;-70
2022/12/06 10:08:09;;;;;;;30.70;11.10;;;;;;;0.81;100.00;95526.53;5021273;28;20053;-70
2022/12/06 10:10:59;;;;;;;38.50;12.75;;;;;;;0.70;100.00;95516.81;5023993;28;20037;-70
2022/12/06 10:13:40;;;;;;;28.63;10.68;;;;;;;0.86;100.00;95510.34;5028442;28;20042;-71
2022/12/06 10:16:18;;;;;;;34.20;12.10;;;;;;;0.79;100.00;95505.22;5026286;28;20407;-70
2022/12/06 10:19:09;;;;;;;34.60;11.75;;;;;;;0.84;100.00;95502.78;5028256;28;20045;-70
2022/12/06 10:21:52;;;;;;;34.15;11.35;;;;;;;0.93;100.00;95499.97;5030594;28;20491;-70
2022/12/06 10:24:39;;;;;;;31.27;11.65;;;;;;;0.91;100.00;95502.78;5017482;28;20042;-70
2022/12/06 10:27:11;;;;;;;38.75;11.48;;;;;;;0.92;100.00;95495.78;5030243;28;20042;-70
2022/12/06 10:29:56;;;;;;;30.77;10.93;;;;;;;0.75;100.00;95483.31;5032860;28;20041;-70
2022/12/06 10:32:43;;;;;;;29.45;10.68;;;;;;;0.92;100.00;95477.63;5027530;28;20046;-70
2022/12/06 10:35:18;;;;;;;28.85;11.15;;;;;;;0.89;100.00;95483.25;5033013;28;20466;-70
2022/12/06 10:37:54;;;;;;;30.85;11.45;;;;;;;0.84;100.00;95476.88;5033228;28;20507;-70
2022/12/06 10:40:38;;;;;;;24.65;10.32;;;;;;;0.99;100.00;95478.41;5027488;28;20049;-70
2022/12/06 10:43:26;;;;;;;28.80;9.98;;;;;;;1.04;100.00;95471.59;5031346;28;20049;-70
2022/12/06 10:49:01;;;;;;;30.15;10.70;;;;;;;1.28;100.00;95471.00;5015936;28;20053;-70
2022/12/06 10:52:21;;;;;;;24.48;8.95;;;;;;;1.13;100.00;95487.66;5012795;28;20041;-69
2022/12/06 10:55:14;;;;;;;24.85;9.18;;;;;;;1.12;100.00;95478.31;4998644;28;20046;-70
2022/12/06 10:58:14;;;;;;;22.88;9.20;;;;;;;1.08;100.00;95477.16;5012588;28;20809;-70
2022/12/06 11:00:56;;;;;;;25.52;9.20;;;;;;;1.09;100.00;95457.19;5028017;28;20116;-70
2022/12/06 11:03:38;;;;;;;23.90;9.75;;;;;;;1.05;100.00;95467.22;5022579;28;20092;-70
2022/12/06 11:06:13;;;;;;;24.52;9.68;;;;;;;1.15;100.00;95454.56;5008793;28;20042;-70
2022/12/06 11:08:52;;;;;;;26.65;9.50;;;;;;;1.24;100.00;95451.72;5011782;28;20042;-70
2022/12/06 11:11:25;;;;;;;24.83;9.02;;;;;;;1.28;100.00;95460.66;5019582;28;20038;-69
2022/12/06 11:14:05;;;;;;;27.50;9.10;;;;;;;1.27;100.00;95459.06;5012663;28;20108;-70
2022/12/06 11:16:38;;;;;;;22.50;9.27;;;;;;;1.16;100.00;95458.72;5012049;28;20117;-69
2022/12/06 11:19:19;;;;;;;22.52;8.48;;;;;;;1.24;100.00;95454.31;5024215;28;20523;-69
2022/12/06 11:21:57;;;;;;;21.10;8.02;;;;;;;1.31;100.00;95444.69;5032037;28;20047;-70
2022/12/06 11:24:31;;;;;;;17.60;7.63;;;;;;;1.28;100.00;95439.91;5021427;28;20038;-69
2022/12/06 11:27:34;;;;;;;21.50;8.70;;;;;;;1.26;100.00;95436.75;5018152;28;20044;-70
2022/12/06 11:30:13;;;;;;;26.70;8.63;;;;;;;1.28;100.00;95434.72;5012352;28;20058;-70
2022/12/06 11:32:39;;;;;;;17.67;7.20;;;;;;;1.29;100.00;95449.28;5030056;28;20068;-69
2022/12/06 11:35:11;;;;;;;16.52;6.65;;;;;;;1.27;100.00;95448.72;5019834;28;20033;-70
2022/12/06 11:37:37;;;;;;;12.73;6.63;;;;;;;1.29;100.00;95442.28;5030198;28;20042;-70
2022/12/06 11:40:14;;;;;;;17.75;6.35;;;;;;;1.34;100.00;95439.06;5012468;28;20045;-69
2022/12/06 11:42:40;;;;;;;15.10;6.50;;;;;;;1.38;100.00;95440.25;5012240;28;20112;-70
2022/12/06 11:45:13;;;;;;;19.42;7.65;;;;;;;1.35;100.00;95431.09;5012751;28;20045;-70
2022/12/06 11:47:39;;;;;;;15.85;6.70;;;;;;;1.44;100.00;95434.19;5018501;28;20080;-69
2022/12/06 11:50:15;;;;;;;12.75;6.32;;;;;;;1.44;100.00;95418.63;5019042;28;20050;-70
2022/12/06 11:52:47;;;;;;;17.27;6.63;;;;;;;1.50;100.00;95428.16;5027957;28;20065;-71
2022/12/06 11:55:17;;;;;;;15.43;6.57;;;;;;;1.45;100.00;95451.34;5021936;28;20061;-70